メキシコシティ の空港の天気 - METARとTAF

メキシコ・シティ国際空港 ( MMMX / MEX ) - メキシコ メキシコシティ
飛行場実況気象(Metar)
観測時間11/20 02:51 CST (11/20 08:51 UTC)
風向・風速東北東 4m/s
視程400m
天気現象
全天を覆う雲 鉛直視程 150m
気温7℃
湿度93%
気圧1014.9hPa
METARMMMX 200851Z 06007KT 1/4SM FG VV005 07/06 A3034 NOSIG RMK SLP149 57007 953 8//// TWR VSBY
過去の天気等 Google飛行場航空写真 Wunderground天気予報

過去48時間のMETAR

飛行場予報(TAF)
発表時間: 11/20 02:30 CST (11/20 08:30 UTC)
予報対象時間: 20日2時 CST ~ 21日6時 CST
風向・風速東 4m/s
視程800m
天気現象
全天を覆う雲 鉛直視程 210m
20日3時 CST ~ 20日7時 CST に一時的に
視程400m
天気現象
全天を覆う雲 鉛直視程 60m
20日9時 CST ~ 20日10時 CST に徐々に
視程3,220m
天気現象もや 煙霧
全天の4割程度の雲 雲底高度 150m
全天の8割程度の雲 雲底高度 300m
20日12時 CST から
風向・風速北 4m/s
視程10km以上
天気現象煙霧
全天の4割程度の雲 雲底高度 610m
20日15時 CST ~ 20日19時 CST に一時的に
全天の8割程度の雲 雲底高度 610m
20日23時 CST から
風向・風速北北東 2m/s
視程10km以上
なし
TAF AMD MMMX 200830Z 2008/2112 08007KT 1/2SM FG VV007 TX21/2021Z TN05/2012Z
TEMPO 2009/2013 1/4SM FG VV002
BECMG 2015/2016 2SM BR HZ SCT005 BKN010
FM201800 35008KT 6SM HZ SCT020
TEMPO 2021/2101 BKN020
FM210500 02004KT P6SM SKC